Time;durP1;ratioP1;P1;durP2;ratioP2;P2;SDS_P1;SDS_P2;PMS_P1;PMS_P2;Temp;Humidity;BMP_temperature;BMP_pressure;BME280_temperature;BME280_humidity;BME280_pressure;Samples;Min_cycle;Max_cycle;Signal;HPM_P1;HPM_P2
2022/06/23 00:00:02;;;;;;;2.17;1.98;;;20.60;99.90;;;;;;10422093;28;20702;-87
2022/06/23 00:05:15;;;;;;;2.90;2.45;;;20.60;99.90;;;;;;10430631;28;20239;-87
2022/06/23 00:10:22;;;;;;;2.20;2.00;;;20.60;99.90;;;;;;10448761;28;20250;-87
2022/06/23 00:15:36;;;;;;;2.30;1.92;;;20.50;99.90;;;;;;10488903;28;20271;-88
2022/06/23 00:20:49;;;;;;;2.97;2.20;;;20.60;99.90;;;;;;10449688;28;20254;-87
2022/06/23 00:25:57;;;;;;;2.17;1.95;;;20.60;99.90;;;;;;10465780;28;20682;-87
2022/06/23 00:31:03;;;;;;;2.83;2.33;;;20.60;99.90;;;;;;10481168;28;20666;-87
2022/06/23 00:36:16;;;;;;;2.30;2.10;;;20.60;99.90;;;;;;10433477;28;20626;-87
2022/06/23 00:41:31;;;;;;;2.10;1.90;;;20.60;99.90;;;;;;10466744;28;20258;-87
2022/06/23 00:46:55;;;;;;;3.70;1.85;;;20.60;99.90;;;;;;10474726;28;20202;-87
2022/06/23 00:52:10;;;;;;;2.53;2.33;;;20.60;99.90;;;;;;10456803;28;20234;-88
2022/06/23 00:57:29;;;;;;;2.00;1.90;;;20.50;99.90;;;;;;10490556;28;20261;-87
2022/06/23 01:02:45;;;;;;;2.53;2.13;;;20.50;99.90;;;;;;10449896;28;20254;-87
2022/06/23 01:08:21;;;;;;;2.28;1.65;;;20.50;99.90;;;;;;10478541;28;20709;-88
2022/06/23 01:13:30;;;;;;;2.13;1.92;;;20.50;99.90;;;;;;10487532;28;20234;-87
2022/06/23 01:18:39;;;;;;;2.50;2.22;;;20.50;99.90;;;;;;10487516;28;20238;-88
2022/06/23 01:24:13;;;;;;;2.25;2.05;;;20.50;99.90;;;;;;10470901;28;20258;-87
2022/06/23 01:29:28;;;;;;;3.30;2.17;;;20.50;99.90;;;;;;10434396;28;20277;-87
2022/06/23 01:34:39;;;;;;;1.92;1.83;;;20.50;99.90;;;;;;10413382;28;20642;-88
2022/06/23 01:39:56;;;;;;;3.38;2.40;;;20.50;99.90;;;;;;10458582;28;20254;-87
2022/06/23 01:45:35;;;;;;;2.47;2.28;;;20.50;99.90;;;;;;10426926;28;20190;-87
2022/06/23 01:50:40;;;;;;;2.38;2.17;;;20.50;99.90;;;;;;10498659;28;20205;-88
2022/06/23 01:56:03;;;;;;;1.98;1.77;;;20.50;99.90;;;;;;10464551;28;20262;-87
2022/06/23 02:01:13;;;;;;;2.00;1.80;;;20.50;99.90;;;;;;10463577;28;20261;-87
2022/06/23 02:06:41;;;;;;;2.63;2.42;;;20.50;99.90;;;;;;10496691;28;20707;-87
2022/06/23 02:11:48;;;;;;;2.10;2.00;;;20.50;99.90;;;;;;10480001;28;20664;-87
2022/06/23 02:17:08;;;;;;;2.67;2.13;;;20.50;99.90;;;;;;10455664;28;20203;-87
2022/06/23 02:22:18;;;;;;;2.47;2.25;;;20.50;99.90;;;;;;10422719;28;20335;-87
2022/06/23 02:27:27;;;;;;;2.72;2.53;;;20.50;99.90;;;;;;10441376;28;20194;-87
2022/06/23 02:32:55;;;;;;;2.08;1.98;;;20.50;99.90;;;;;;10495161;28;20214;-88
2022/06/23 02:38:08;;;;;;;2.42;2.10;;;20.50;99.90;;;;;;10495628;28;20249;-88
2022/06/23 02:43:36;;;;;;;2.33;2.13;;;20.50;99.90;;;;;;10454488;28;20250;-88
2022/06/23 02:48:44;;;;;;;2.97;2.67;;;20.50;99.90;;;;;;10459031;28;20202;-88
2022/06/23 02:53:53;;;;;;;2.20;2.00;;;20.50;99.90;;;;;;10454848;28;20238;-87
2022/06/23 02:59:01;;;;;;;2.38;1.90;;;20.50;99.90;;;;;;10466642;28;20809;-87
2022/06/23 03:04:12;;;;;;;2.28;2.08;;;20.50;99.90;;;;;;10489932;28;20253;-88
2022/06/23 03:09:38;;;;;;;2.45;2.25;;;20.50;99.90;;;;;;10465953;28;20207;-88
2022/06/23 03:14:56;;;;;;;2.15;1.95;;;20.50;99.90;;;;;;10453621;28;20866;-88
2022/06/23 03:20:31;;;;;;;2.50;2.30;;;20.50;99.90;;;;;;10468463;28;20291;-87
2022/06/23 03:25:47;;;;;;;7.22;2.40;;;20.50;99.90;;;;;;10411792;28;20741;-87
2022/06/23 03:31:10;;;;;;;2.15;1.95;;;20.50;99.90;;;;;;10474119;28;20233;-88
2022/06/23 03:36:26;;;;;;;2.67;2.33;;;20.50;99.90;;;;;;10494149;28;20661;-88
2022/06/23 03:41:39;;;;;;;2.60;2.40;;;20.50;99.90;;;;;;10493130;28;20319;-88
2022/06/23 03:46:58;;;;;;;2.50;2.30;;;20.50;99.90;;;;;;10493625;28;20256;-87
2022/06/23 03:52:04;;;;;;;2.55;2.25;;;20.50;99.90;;;;;;10462419;28;20231;-88
2022/06/23 03:57:17;;;;;;;2.35;2.08;;;20.50;99.90;;;;;;10455345;28;20283;-88
2022/06/23 04:02:25;;;;;;;2.83;2.63;;;20.60;99.90;;;;;;10461296;28;20269;-87
2022/06/23 04:07:28;;;;;;;2.28;1.95;;;20.50;99.90;;;;;;10448364;28;20284;-88
2022/06/23 04:12:32;;;;;;;2.55;2.35;;;20.60;99.90;;;;;;10451777;28;20223;-87
2022/06/23 04:17:43;;;;;;;2.42;2.22;;;20.60;99.90;;;;;;10450797;28;20563;-88
2022/06/23 04:23:14;;;;;;;2.58;2.38;;;20.60;99.90;;;;;;10448296;28;20246;-87
2022/06/23 04:28:27;;;;;;;2.28;2.08;;;20.70;99.90;;;;;;10463316;28;20198;-87
2022/06/23 04:33:34;;;;;;;4.03;2.33;;;20.90;99.90;;;;;;10436774;28;20203;-88
2022/06/23 04:38:42;;;;;;;3.00;2.30;;;21.10;99.90;;;;;;10449339;28;20246;-88
2022/06/23 04:44:08;;;;;;;2.35;2.13;;;21.10;99.90;;;;;;10448162;28;20788;-88
2022/06/23 04:49:24;;;;;;;2.97;2.25;;;20.90;99.90;;;;;;10472334;28;20191;-88
2022/06/23 04:54:55;;;;;;;2.47;2.28;;;20.80;99.90;;;;;;10448353;28;20254;-88
2022/06/23 05:00:01;;;;;;;2.40;2.17;;;20.80;99.90;;;;;;10446253;28;20227;-88
2022/06/23 05:05:13;;;;;;;2.03;1.83;;;20.80;99.90;;;;;;10450227;28;20223;-88
2022/06/23 05:10:20;;;;;;;2.50;2.25;;;20.80;99.90;;;;;;10484482;28;20213;-88
2022/06/23 05:15:35;;;;;;;3.08;2.60;;;20.80;99.90;;;;;;10492213;28;20222;-88
2022/06/23 05:20:47;;;;;;;3.05;2.45;;;20.90;99.90;;;;;;10473578;28;20250;-88
2022/06/23 05:25:53;;;;;;;5.13;2.40;;;20.90;99.90;;;;;;10484881;28;20244;-88
2022/06/23 05:30:59;;;;;;;2.83;2.20;;;20.90;99.90;;;;;;10468824;28;20226;-88
2022/06/23 05:36:05;;;;;;;3.05;2.60;;;20.90;99.90;;;;;;10502235;28;20296;-88
2022/06/23 05:41:26;;;;;;;4.38;2.65;;;21.00;99.90;;;;;;10430163;28;20247;-89
2022/06/23 05:46:30;;;;;;;2.33;2.13;;;21.00;99.90;;;;;;10415208;28;20245;-88
2022/06/23 05:51:59;;;;;;;2.53;2.22;;;21.00;99.90;;;;;;10444305;28;20666;-88
2022/06/23 05:57:09;;;;;;;2.75;2.55;;;21.10;99.90;;;;;;10457301;28;20745;-88
2022/06/23 06:02:19;;;;;;;2.78;2.53;;;21.10;99.90;;;;;;10502156;28;20320;-87
2022/06/23 06:07:27;;;;;;;3.45;2.47;;;21.10;99.90;;;;;;10469237;28;20233;-88
2022/06/23 06:12:37;;;;;;;2.85;2.38;;;21.10;99.90;;;;;;10484172;28;20237;-87
2022/06/23 06:17:41;;;;;;;2.72;2.53;;;21.20;99.90;;;;;;10456902;28;20609;-87
2022/06/23 06:22:53;;;;;;;2.72;2.50;;;21.20;99.90;;;;;;10424180;28;20258;-87
2022/06/23 06:28:01;;;;;;;4.20;2.92;;;21.20;99.90;;;;;;10487117;28;20233;-87
2022/06/23 06:33:04;;;;;;;2.95;2.75;;;21.30;99.90;;;;;;10482609;28;20571;-87
2022/06/23 06:38:09;;;;;;;2.88;2.35;;;21.40;99.90;;;;;;10479833;28;20285;-87
2022/06/23 06:43:20;;;;;;;2.38;2.17;;;21.50;99.90;;;;;;10442204;28;20302;-86
2022/06/23 06:48:30;;;;;;;12.48;5.72;;;21.50;99.90;;;;;;10471365;28;20606;-86
2022/06/23 06:53:40;;;;;;;6.80;3.25;;;21.50;99.90;;;;;;10470862;28;20238;-86
2022/06/23 06:59:06;;;;;;;2.42;2.25;;;21.50;99.90;;;;;;10425622;28;20230;-87
2022/06/23 07:04:16;;;;;;;9.13;2.70;;;21.60;99.90;;;;;;10441102;28;20250;-87
2022/06/23 07:09:39;;;;;;;5.00;3.63;;;21.70;99.90;;;;;;10437440;28;20239;-87
2022/06/23 07:15:26;;;;;;;11.43;3.85;;;21.80;99.90;;;;;;10470930;28;20207;-87
2022/06/23 07:20:47;;;;;;;8.27;2.95;;;22.00;99.90;;;;;;10429908;28;20243;-87
2022/06/23 07:25:54;;;;;;;2.55;2.13;;;22.20;99.90;;;;;;10493972;28;20217;-87
2022/06/23 07:31:05;;;;;;;5.80;2.85;;;22.20;99.90;;;;;;10476291;28;20655;-86
2022/06/23 07:36:40;;;;;;;4.18;2.75;;;22.50;99.90;;;;;;10491601;28;20740;-87
2022/06/23 07:41:46;;;;;;;6.00;2.42;;;22.70;99.90;;;;;;10492767;28;20307;-86
2022/06/23 07:46:48;;;;;;;4.80;2.50;;;22.70;99.90;;;;;;10468802;28;20247;-86
2022/06/23 07:51:58;;;;;;;3.38;2.10;;;22.80;99.90;;;;;;10450733;28;20278;-86
2022/06/23 07:57:01;;;;;;;4.05;2.33;;;22.90;99.90;;;;;;10476692;28;20270;-86
2022/06/23 08:02:20;;;;;;;6.15;2.20;;;23.10;98.40;;;;;;10446123;28;20627;-85
2022/06/23 08:07:24;;;;;;;2.95;2.30;;;23.20;96.80;;;;;;10465714;28;20229;-85
2022/06/23 08:12:55;;;;;;;8.27;2.75;;;23.00;99.90;;;;;;10491616;28;20580;-85
2022/06/23 08:18:08;;;;;;;3.88;2.70;;;23.20;99.40;;;;;;10491103;28;20199;-86
2022/06/23 08:23:13;;;;;;;4.55;2.25;;;23.60;96.30;;;;;;10461529;28;20614;-85
2022/06/23 08:28:16;;;;;;;3.53;1.88;;;23.80;96.80;;;;;;10461583;28;20211;-85
2022/06/23 08:33:18;;;;;;;2.55;2.35;;;23.70;97.50;;;;;;10457477;28;20226;-86
2022/06/23 08:38:44;;;;;;;2.17;2.05;;;23.80;98.40;;;;;;10467068;28;20621;-87
2022/06/23 08:44:13;;;;;;;2.72;2.47;;;24.00;98.10;;;;;;10491695;28;20268;-87
2022/06/23 08:49:24;;;;;;;8.25;4.32;;;23.90;96.30;;;;;;10436665;28;20203;-87
2022/06/23 08:54:35;;;;;;;10.55;4.70;;;24.00;99.90;;;;;;10420601;28;20243;-87
2022/06/23 09:00:05;;;;;;;8.45;3.70;;;23.70;99.90;;;;;;10418289;28;20238;-85
2022/06/23 09:05:27;;;;;;;6.45;2.80;;;23.40;99.90;;;;;;10444285;28;20226;-85
2022/06/23 09:10:51;;;;;;;8.18;3.90;;;23.80;97.90;;;;;;10481371;28;20256;-85
2022/06/23 09:16:12;;;;;;;7.53;3.70;;;23.90;99.90;;;;;;10445255;28;20198;-86
2022/06/23 09:21:40;;;;;;;2.88;2.08;;;24.00;99.80;;;;;;10449056;28;20246;-85
2022/06/23 09:26:49;;;;;;;4.85;2.50;;;24.40;95.50;;;;;;10458640;28;20229;-86
2022/06/23 09:32:37;;;;;;;3.22;2.13;;;24.50;93.50;;;;;;10469089;28;20203;-85
2022/06/23 09:37:48;;;;;;;5.57;3.83;;;24.70;98.00;;;;;;10435481;28;20942;-85
2022/06/23 09:43:20;;;;;;;5.85;3.50;;;24.60;97.40;;;;;;10462024;28;20218;-83
2022/06/23 09:48:30;;;;;;;5.57;3.63;;;24.40;97.80;;;;;;10449582;28;20550;-82
2022/06/23 09:53:50;;;;;;;5.95;2.78;;;24.30;98.40;;;;;;10451330;28;20215;-83
2022/06/23 09:59:31;;;;;;;5.30;2.33;;;24.40;94.20;;;;;;10477464;28;20210;-84
2022/06/23 10:05:01;;;;;;;4.88;2.97;;;24.80;93.80;;;;;;10511985;28;20219;-84
2022/06/23 10:10:22;;;;;;;4.70;2.88;;;24.80;96.40;;;;;;10511256;28;20217;-85
2022/06/23 10:15:50;;;;;;;6.20;3.30;;;25.30;92.70;;;;;;10493289;28;20183;-85
2022/06/23 10:21:05;;;;;;;2.60;2.40;;;24.90;94.40;;;;;;10523126;28;20186;-85
2022/06/23 10:26:10;;;;;;;3.22;2.40;;;24.70;96.40;;;;;;10486414;28;20192;-85
2022/06/23 10:31:51;;;;;;;2.47;2.28;;;25.10;94.40;;;;;;10490634;28;20191;-84
2022/06/23 10:37:05;;;;;;;7.55;2.83;;;24.80;95.00;;;;;;10528151;28;20199;-84
2022/06/23 10:42:27;;;;;;;5.35;2.60;;;25.00;94.80;;;;;;10510233;28;20207;-84
2022/06/23 10:47:52;;;;;;;4.80;2.75;;;25.10;94.40;;;;;;10528390;28;20204;-84
2022/06/23 10:53:07;;;;;;;6.10;3.10;;;25.50;89.00;;;;;;10545050;28;20224;-85
2022/06/23 10:58:27;;;;;;;3.45;3.15;;;25.00;95.40;;;;;;10536826;28;20210;-86
2022/06/23 11:04:08;;;;;;;4.35;3.25;;;24.60;95.90;;;;;;10493386;28;20198;-86
2022/06/23 11:09:31;;;;;;;2.95;2.20;;;25.10;93.50;;;;;;10507335;28;20183;-86
2022/06/23 11:15:18;;;;;;;10.73;3.05;;;25.10;91.80;;;;;;10469464;28;20214;-86
2022/06/23 11:20:21;;;;;;;2.97;2.63;;;25.80;93.60;;;;;;10502428;28;20241;-85
2022/06/23 11:25:42;;;;;;;4.90;2.42;;;25.10;93.70;;;;;;10505726;28;20210;-85
2022/06/23 11:31:11;;;;;;;5.72;2.50;;;25.10;90.20;;;;;;10499018;28;20206;-86
2022/06/23 11:36:17;;;;;;;4.43;2.90;;;25.30;90.50;;;;;;10504908;28;20221;-86
2022/06/23 11:41:31;;;;;;;2.78;2.50;;;24.80;92.70;;;;;;10481723;28;20179;-86
2022/06/23 11:46:41;;;;;;;4.10;3.33;;;25.40;92.30;;;;;;10537552;28;20187;-86
2022/06/23 11:51:47;;;;;;;4.75;2.35;;;25.00;94.50;;;;;;10500273;28;20203;-86
2022/06/23 11:56:58;;;;;;;3.78;3.13;;;25.50;93.50;;;;;;10497094;28;20231;-86
2022/06/23 12:02:01;;;;;;;5.30;2.42;;;25.00;94.10;;;;;;10504564;28;20638;-87
2022/06/23 12:07:23;;;;;;;6.82;2.83;;;25.50;92.60;;;;;;10512618;28;20183;-86
2022/06/23 12:12:28;;;;;;;3.33;2.97;;;25.60;90.60;;;;;;10475702;28;20195;-85
2022/06/23 12:17:40;;;;;;;11.88;3.08;;;25.60;92.50;;;;;;10468574;28;20261;-86
2022/06/23 12:23:10;;;;;;;3.53;2.70;;;26.00;92.20;;;;;;10466086;28;20219;-86
2022/06/23 12:28:28;;;;;;;2.95;2.65;;;25.90;85.90;;;;;;10466048;28;20187;-86
2022/06/23 12:33:35;;;;;;;2.50;2.22;;;26.30;89.70;;;;;;10458308;28;20206;-86
2022/06/23 12:39:01;;;;;;;6.68;3.15;;;26.00;88.50;;;;;;10463999;28;20626;-86
2022/06/23 12:44:24;;;;;;;3.10;2.38;;;25.60;89.50;;;;;;10428255;28;20222;-85
2022/06/23 12:49:44;;;;;;;4.63;2.72;;;25.20;92.30;;;;;;10469342;28;20275;-87
2022/06/23 12:55:23;;;;;;;5.60;2.72;;;25.30;87.30;;;;;;10495329;28;20210;-87
2022/06/23 13:00:34;;;;;;;4.68;2.75;;;25.70;89.80;;;;;;10496241;28;20210;-87
2022/06/23 13:05:48;;;;;;;4.68;3.22;;;25.90;84.90;;;;;;10404675;28;20224;-87
2022/06/23 13:11:03;;;;;;;3.05;2.85;;;25.90;85.40;;;;;;10415594;28;20208;-87
2022/06/23 13:16:14;;;;;;;2.50;2.30;;;25.10;88.00;;;;;;10413951;28;20258;-87
2022/06/23 13:21:28;;;;;;;3.88;2.63;;;25.40;88.50;;;;;;10412885;28;20211;-87
2022/06/23 13:26:44;;;;;;;2.10;2.00;;;25.90;87.50;;;;;;10410748;28;20231;-87
2022/06/23 13:31:58;;;;;;;2.85;2.42;;;25.10;90.10;;;;;;10409909;28;20207;-88
2022/06/23 13:37:21;;;;;;;4.03;2.58;;;25.30;88.00;;;;;;10416223;28;20207;-88
2022/06/23 13:42:54;;;;;;;2.75;2.55;;;25.60;84.00;;;;;;10416235;28;20308;-88
2022/06/23 13:48:19;;;;;;;7.75;2.83;;;24.80;88.20;;;;;;10407378;28;20235;-88
2022/06/23 13:53:40;;;;;;;4.90;2.60;;;24.40;91.10;;;;;;10448595;28;20219;-87
2022/06/23 13:59:01;;;;;;;3.40;2.50;;;24.80;90.70;;;;;;10415227;28;20227;-88
2022/06/23 14:04:16;;;;;;;2.97;2.78;;;25.20;85.40;;;;;;10415254;28;20304;-88
2022/06/23 14:09:28;;;;;;;10.52;2.63;;;24.60;91.30;;;;;;10414678;28;20204;-88
2022/06/23 14:14:49;;;;;;;3.42;3.13;;;24.40;91.40;;;;;;10397979;28;20212;-88
2022/06/23 14:20:01;;;;;;;2.55;2.35;;;24.70;90.60;;;;;;10414633;28;20224;-88
2022/06/23 14:25:20;;;;;;;7.45;3.03;;;25.40;89.30;;;;;;10446741;28;20258;-88
2022/06/23 14:30:50;;;;;;;3.85;2.47;;;25.80;87.70;;;;;;10414396;28;20226;-88
2022/06/23 14:36:10;;;;;;;3.20;2.90;;;26.10;88.90;;;;;;10411617;28;20258;-88
2022/06/23 14:41:20;;;;;;;3.95;3.05;;;25.50;90.50;;;;;;10413746;28;20215;-88
2022/06/23 14:46:41;;;;;;;3.38;3.10;;;25.40;90.60;;;;;;10414102;28;20301;-88
2022/06/23 14:52:08;;;;;;;12.27;3.38;;;25.10;91.10;;;;;;10469823;28;20223;-87
2022/06/23 14:57:18;;;;;;;6.40;2.97;;;25.70;88.00;;;;;;10505494;28;20238;-88
2022/06/23 15:02:35;;;;;;;6.18;2.80;;;25.80;85.20;;;;;;10488702;28;20639;-88
2022/06/23 15:07:51;;;;;;;4.57;3.20;;;25.50;87.50;;;;;;10465354;28;20222;-87
2022/06/23 15:13:16;;;;;;;4.63;2.60;;;25.00;90.70;;;;;;10493177;28;20612;-88
2022/06/23 15:18:21;;;;;;;4.72;2.75;;;25.20;86.90;;;;;;10461395;28;20219;-88
2022/06/23 15:23:36;;;;;;;3.42;3.13;;;25.60;86.60;;;;;;10429677;28;20251;-87
2022/06/23 15:29:06;;;;;;;4.38;2.97;;;25.20;90.20;;;;;;10495173;28;20190;-90
2022/06/23 15:34:35;;;;;;;2.83;2.63;;;24.90;91.50;;;;;;10494087;28;20271;-87
2022/06/23 15:39:52;;;;;;;3.53;2.60;;;24.60;90.50;;;;;;10460037;28;20276;-87
2022/06/23 15:44:59;;;;;;;5.38;2.80;;;25.60;89.60;;;;;;10504751;28;20783;-87
2022/06/23 15:50:13;;;;;;;6.45;2.60;;;25.30;89.60;;;;;;10466269;28;20222;-87
2022/06/23 15:55:28;;;;;;;3.80;2.88;;;25.00;90.90;;;;;;10452330;28;20608;-87
2022/06/23 16:00:40;;;;;;;2.85;2.63;;;24.70;92.10;;;;;;10451005;28;20223;-88
2022/06/23 16:06:23;;;;;;;6.32;3.15;;;24.60;92.40;;;;;;10102266;28;10000109;-87
2022/06/23 16:11:40;;;;;;;2.88;2.67;;;24.80;86.80;;;;;;10445867;28;20246;-87
2022/06/23 16:16:48;;;;;;;2.72;2.53;;;25.00;91.80;;;;;;10445689;28;20231;-87
2022/06/23 16:22:03;;;;;;;4.07;2.78;;;25.20;90.30;;;;;;10456338;28;20288;-87
2022/06/23 16:27:31;;;;;;;4.55;3.08;;;25.20;90.70;;;;;;10435224;28;20320;-87
2022/06/23 16:32:43;;;;;;;3.65;2.90;;;25.00;91.90;;;;;;10448689;28;20284;-87
2022/06/23 16:38:16;;;;;;;2.65;2.45;;;24.70;92.60;;;;;;10485142;28;20226;-87
2022/06/23 16:43:27;;;;;;;3.08;2.88;;;25.10;90.70;;;;;;10444667;28;20230;-87
2022/06/23 16:49:03;;;;;;;17.83;3.05;;;25.20;91.50;;;;;;10446412;28;20274;-87
2022/06/23 16:54:22;;;;;;;2.92;2.72;;;25.20;91.80;;;;;;10444806;28;20762;-87
2022/06/23 16:59:41;;;;;;;2.58;2.38;;;25.00;92.40;;;;;;10445595;28;20262;-87
2022/06/23 17:05:06;;;;;;;3.75;3.05;;;25.10;92.10;;;;;;10487645;28;20249;-87
2022/06/23 17:10:15;;;;;;;4.43;2.58;;;24.80;92.40;;;;;;10482355;28;20292;-87
2022/06/23 17:15:23;;;;;;;2.80;2.60;;;25.00;92.20;;;;;;10486329;28;20225;-87
2022/06/23 17:20:36;;;;;;;3.17;2.90;;;24.90;92.90;;;;;;10485912;28;20237;-87
2022/06/23 17:25:45;;;;;;;2.75;2.42;;;24.80;92.90;;;;;;10484233;28;20242;-87
2022/06/23 17:30:54;;;;;;;2.67;2.53;;;24.70;93.40;;;;;;10463788;28;20246;-87
2022/06/23 17:36:05;;;;;;;6.97;2.83;;;24.70;93.80;;;;;;10444771;28;20258;-87
2022/06/23 17:47:31;;;;;;;3.63;2.25;;;24.40;94.50;;;;;;10375384;28;20262;-86
2022/06/23 17:52:41;;;;;;;5.97;2.78;;;24.40;95.10;;;;;;10417159;28;20996;-87
2022/06/23 17:57:50;;;;;;;2.58;2.38;;;24.50;94.50;;;;;;10446322;28;20265;-87
2022/06/23 18:03:08;;;;;;;4.63;2.90;;;24.50;94.80;;;;;;10442706;28;20229;-87
2022/06/23 18:08:18;;;;;;;4.70;2.88;;;24.40;95.00;;;;;;10464965;28;20226;-86
2022/06/23 18:13:42;;;;;;;3.35;2.45;;;24.20;95.40;;;;;;10443863;28;20215;-86
2022/06/23 18:18:59;;;;;;;6.85;2.60;;;23.80;96.30;;;;;;10440357;28;20226;-85
2022/06/23 18:24:16;;;;;;;3.53;2.90;;;23.60;98.60;;;;;;10438391;28;20272;-86
2022/06/23 18:29:23;;;;;;;3.53;2.85;;;23.50;98.00;;;;;;10453795;28;20236;-86
2022/06/23 18:34:44;;;;;;;2.95;2.72;;;23.10;98.60;;;;;;10445785;28;20253;-86
2022/06/23 18:39:53;;;;;;;2.42;2.22;;;22.90;99.10;;;;;;10444673;28;20284;-85
2022/06/23 18:45:04;;;;;;;2.85;2.63;;;22.80;99.70;;;;;;10451523;28;20238;-86
2022/06/23 18:50:29;;;;;;;3.13;2.83;;;22.60;99.90;;;;;;10444907;28;20227;-86
2022/06/23 18:55:37;;;;;;;2.65;2.45;;;22.50;99.90;;;;;;10442754;28;20333;-86
2022/06/23 19:00:52;;;;;;;2.85;2.65;;;22.40;99.90;;;;;;10453628;28;20279;-85
2022/06/23 19:06:09;;;;;;;2.53;2.33;;;22.30;99.90;;;;;;10452202;28;20408;-86
2022/06/23 19:11:26;;;;;;;2.90;2.70;;;22.20;99.90;;;;;;10477850;28;20230;-85
2022/06/23 19:16:38;;;;;;;2.88;2.60;;;22.10;99.90;;;;;;10451836;28;20264;-86
2022/06/23 19:21:50;;;;;;;2.90;2.63;;;22.00;99.90;;;;;;10452816;28;20275;-86
2022/06/23 19:27:07;;;;;;;2.60;2.40;;;21.90;99.90;;;;;;10451782;28;20281;-86
2022/06/23 19:32:17;;;;;;;3.28;2.60;;;21.80;99.90;;;;;;10451665;28;20264;-86
2022/06/23 19:37:30;;;;;;;2.88;2.67;;;21.80;99.90;;;;;;10452588;28;20703;-86
2022/06/23 19:43:15;;;;;;;2.42;2.22;;;21.70;99.90;;;;;;10492220;28;20233;-86
2022/06/23 19:48:40;;;;;;;3.03;2.83;;;21.70;99.90;;;;;;10487537;28;20245;-86
2022/06/23 19:54:14;;;;;;;3.80;3.00;;;21.70;99.90;;;;;;10481191;28;20226;-86
2022/06/23 19:59:29;;;;;;;3.08;2.88;;;21.60;99.90;;;;;;10458363;28;20304;-86
2022/06/23 20:04:38;;;;;;;3.10;2.90;;;21.60;99.90;;;;;;10450911;28;20238;-86
2022/06/23 20:09:52;;;;;;;2.45;2.25;;;21.60;99.90;;;;;;10484811;28;20229;-86
2022/06/23 20:15:14;;;;;;;3.10;2.55;;;21.60;99.90;;;;;;10456809;28;20284;-86
2022/06/23 20:20:42;;;;;;;2.92;2.58;;;21.60;99.90;;;;;;10412610;28;20231;-86
2022/06/23 20:25:56;;;;;;;4.60;3.20;;;21.60;99.90;;;;;;10475096;28;20241;-87
2022/06/23 20:31:18;;;;;;;3.28;2.97;;;21.50;99.90;;;;;;10466315;28;20370;-86
2022/06/23 20:36:59;;;;;;;3.05;2.85;;;21.50;99.90;;;;;;10452970;28;20227;-86
2022/06/23 20:42:11;;;;;;;2.90;2.70;;;21.50;99.90;;;;;;10457817;28;20257;-87
2022/06/23 20:47:51;;;;;;;3.10;2.90;;;21.50;99.90;;;;;;10474350;28;20258;-87
2022/06/23 20:53:03;;;;;;;2.88;2.67;;;21.50;99.90;;;;;;10421717;28;20285;-86
2022/06/23 20:58:25;;;;;;;2.70;2.50;;;21.40;99.90;;;;;;10425304;28;20268;-86
2022/06/23 21:03:57;;;;;;;2.72;2.58;;;21.40;99.90;;;;;;10442710;28;20721;-87
2022/06/23 21:09:14;;;;;;;2.90;2.70;;;21.40;99.90;;;;;;10386275;28;20699;-86
2022/06/23 21:14:37;;;;;;;2.58;2.45;;;21.40;99.90;;;;;;10435938;28;20238;-86
2022/06/23 21:20:03;;;;;;;2.85;2.55;;;21.40;99.90;;;;;;10463407;28;20697;-86
2022/06/23 21:25:12;;;;;;;3.17;2.97;;;21.40;99.90;;;;;;10403238;28;20673;-87
2022/06/23 21:30:56;;;;;;;2.80;2.60;;;21.40;99.90;;;;;;10405785;28;20238;-87
2022/06/23 21:36:17;;;;;;;2.83;2.58;;;21.40;99.90;;;;;;10423094;28;20300;-87
2022/06/23 21:41:31;;;;;;;3.20;2.92;;;21.40;99.90;;;;;;10433483;28;20305;-87
2022/06/23 21:46:54;;;;;;;3.58;3.38;;;21.40;99.90;;;;;;10429984;28;20313;-87
2022/06/23 21:52:22;;;;;;;3.05;2.85;;;21.30;99.90;;;;;;10436061;23;20324;-80
2022/06/23 21:57:34;;;;;;;2.83;2.63;;;21.30;99.90;;;;;;10429393;28;20223;-80
2022/06/23 22:02:50;;;;;;;3.30;3.00;;;21.30;99.90;;;;;;10434363;28;20277;-79
2022/06/23 22:08:07;;;;;;;3.40;3.10;;;21.30;99.90;;;;;;10468685;28;20261;-79
2022/06/23 22:13:22;;;;;;;3.25;3.03;;;21.30;99.90;;;;;;10433366;28;20676;-79
2022/06/23 22:18:30;;;;;;;3.05;2.85;;;21.30;99.90;;;;;;10442562;28;20774;-79
2022/06/23 22:29:30;;;;;;;3.45;2.78;;;21.30;99.90;;;;;;10452665;28;20231;-79
2022/06/23 22:34:44;;;;;;;2.80;2.60;;;21.20;99.90;;;;;;10450461;28;20291;-80
2022/06/23 22:39:56;;;;;;;2.97;2.78;;;21.30;99.90;;;;;;10437152;28;20239;-80
2022/06/23 22:45:13;;;;;;;3.22;2.92;;;21.20;99.90;;;;;;10446271;28;20304;-81
2022/06/23 22:50:16;;;;;;;3.08;2.85;;;21.20;99.90;;;;;;10451714;28;20300;-80
2022/06/23 22:55:19;;;;;;;3.08;2.88;;;21.20;99.90;;;;;;10450359;28;20630;-80
2022/06/23 23:00:23;;;;;;;2.97;2.78;;;21.20;99.90;;;;;;10451898;28;20679;-80
2022/06/23 23:05:37;;;;;;;3.08;2.80;;;21.20;99.90;;;;;;10457376;28;20247;-80
2022/06/23 23:10:39;;;;;;;2.90;2.70;;;21.20;99.90;;;;;;10411535;28;20235;-80
2022/06/23 23:15:44;;;;;;;3.40;3.10;;;21.20;99.90;;;;;;10419775;28;20226;-80
2022/06/23 23:20:54;;;;;;;2.92;2.72;;;21.20;99.90;;;;;;10452508;28;20226;-80
2022/06/23 23:25:57;;;;;;;3.17;2.92;;;21.10;99.90;;;;;;10452061;28;20669;-80
2022/06/23 23:31:01;;;;;;;4.00;3.22;;;21.20;99.90;;;;;;10452570;28;20195;-80
2022/06/23 23:36:04;;;;;;;3.05;2.65;;;21.20;99.90;;;;;;10453422;28;20703;-80
2022/06/23 23:41:14;;;;;;;3.10;2.90;;;21.20;99.90;;;;;;10452193;28;20623;-80
2022/06/23 23:46:24;;;;;;;3.55;3.25;;;21.20;99.90;;;;;;10452971;28;20276;-80
2022/06/23 23:51:27;;;;;;;2.92;2.72;;;21.10;99.90;;;;;;10451878;28;20308;-80
2022/06/23 23:56:30;;;;;;;2.85;2.65;;;21.10;99.90;;;;;;10452235;28;20234;-80
